Destinations Malmö Sturup Airport

Malmö Sturup Airport (ESMS / MMX)

Flights to Malmö Sturup Airport

Flight number From ETE Dispatch
SPY-314 EHGG Groningen Airport Eelde 01:25

Flights from Malmö Sturup Airport

Flight number To ETE Dispatch
SPY-315 EHGG Groningen Airport Eelde 01:25
About

Malmö Sturup Airport facts

Malmö Sturup Airport is located in Malmoe at an elevation of 71.9 meters or 236 feet.

Currently, Speedy Airlines serves 2 flights to and from Malmö Sturup Airport.

Detailed airport info

Route map

Weather

Current weather

METAR

METAR

Metar data retrieved Sunday, 21 July 2024 at 19:25 UTC

ESMS 211850Z 11006KT CAVOK 21/13 Q1010
Wind Temperature
6 kt 21c